Time,TemperatureF,DewpointF,PressureIn,WindDirection,WindDirectionDegrees,WindSpeedMPH,WindSpeedGustMPH,Humidity,HourlyPrecipIn,Conditions,Clouds,dailyrainin,SoftwareType,DateUTC
2013-02-09 00:11:00,16.8,15.0,29.75,NE,54,1.0,17.0,93,0.00,,,0.00,weatherlink.com 1.10,2013-02-09 05:11:00,
2013-02-09 00:26:00,16.5,15.0,29.76,NE,42,12.0,18.0,93,0.00,,,0.00,weatherlink.com 1.10,2013-02-09 05:26:00,
2013-02-09 00:41:00,16.2,15.0,29.76,NNW,348,5.0,17.0,93,0.00,,,0.00,weatherlink.com 1.10,2013-02-09 05:41:00,
2013-02-09 00:56:00,15.9,14.0,29.77,North,11,6.0,18.0,93,0.00,,,0.00,weatherlink.com 1.10,2013-02-09 05:56:00,
2013-02-09 01:11:00,15.9,14.0,29.78,North,349,0.0,15.0,93,0.00,,,0.00,weatherlink.com 1.10,2013-02-09 06:11:00,
2013-02-09 01:26:00,15.8,14.0,29.79,North,5,8.0,12.0,93,0.00,,,0.00,weatherlink.com 1.10,2013-02-09 06:26:00,
2013-02-09 01:41:00,15.8,14.0,29.80,NNE,17,2.0,10.0,93,0.00,,,0.00,weatherlink.com 1.10,2013-02-09 06:41:00,
2013-02-09 01:56:00,15.9,14.0,29.79,NW,309,4.0,9.0,93,0.00,,,0.00,weatherlink.com 1.10,2013-02-09 06:56:00,
2013-02-09 02:11:00,16.0,14.0,29.79,North,351,5.0,12.0,93,0.00,,,0.00,weatherlink.com 1.10,2013-02-09 07:11:00,
2013-02-09 02:26:00,16.1,15.0,29.79,NNW,348,2.0,10.0,93,0.00,,,0.00,weatherlink.com 1.10,2013-02-09 07:26:00,
2013-02-09 02:41:00,16.3,15.0,29.79,West,272,3.0,11.0,93,0.00,,,0.00,weatherlink.com 1.10,2013-02-09 07:41:00,
2013-02-09 02:56:00,16.5,15.0,29.78,WSW,240,4.0,13.0,93,0.00,,,0.00,weatherlink.com 1.10,2013-02-09 07:56:00,
2013-02-09 03:11:00,16.7,15.0,29.78,West,274,3.0,12.0,94,0.00,,,0.00,weatherlink.com 1.10,2013-02-09 08:11:00,
2013-02-09 03:26:00,16.9,16.0,29.77,West,272,3.0,12.0,94,0.00,,,0.00,weatherlink.com 1.10,2013-02-09 08:26:00,
2013-02-09 03:41:00,17.0,16.0,29.77,NNW,333,5.0,14.0,94,0.00,,,0.00,weatherlink.com 1.10,2013-02-09 08:41:00,
2013-02-09 03:56:00,17.1,16.0,29.78,NNW,331,8.0,17.0,94,0.00,,,0.00,weatherlink.com 1.10,2013-02-09 08:56:00,
2013-02-09 04:11:00,17.2,16.0,29.78,NW,319,2.0,16.0,94,0.00,,,0.00,weatherlink.com 1.10,2013-02-09 09:11:00,
2013-02-09 04:26:00,17.7,16.0,29.79,NW,313,7.0,22.0,94,0.00,,,0.00,weatherlink.com 1.10,2013-02-09 09:26:00,
2013-02-09 04:41:00,17.8,16.0,29.78,SW,221,4.0,21.0,94,0.00,,,0.00,weatherlink.com 1.10,2013-02-09 09:41:00,
2013-02-09 04:56:00,17.8,16.0,29.79,WNW,291,6.0,23.0,94,0.00,,,0.00,weatherlink.com 1.10,2013-02-09 09:56:00,
2013-02-09 05:11:00,17.7,16.0,29.79,NNW,346,5.0,18.0,94,0.00,,,0.00,weatherlink.com 1.10,2013-02-09 10:11:00,
2013-02-09 05:26:00,17.7,16.0,29.79,NNW,347,4.0,20.0,94,0.00,,,0.00,weatherlink.com 1.10,2013-02-09 10:26:00,
2013-02-09 05:41:00,17.6,16.0,29.80,NNW,338,9.0,21.0,94,0.00,,,0.00,weatherlink.com 1.10,2013-02-09 10:41:00,
2013-02-09 05:56:00,17.4,16.0,29.80,North,5,10.0,20.0,94,0.00,,,0.00,weatherlink.com 1.10,2013-02-09 10:56:00,
2013-02-09 06:11:00,16.9,15.0,29.80,NNW,339,16.0,20.0,93,0.00,,,0.00,weatherlink.com 1.10,2013-02-09 11:11:00,
2013-02-09 06:26:00,-999.0,-99.9,29.81,North,-999,-999.0,-999.0,-999,0.00,,,0.00,weatherlink.com 1.10,2013-02-09 11:26:00,
2013-02-09 06:41:00,-999.0,-99.9,29.81,North,-999,-999.0,-999.0,-999,0.00,,,0.00,weatherlink.com 1.10,2013-02-09 11:41:00,
2013-02-09 06:56:00,-999.0,-99.9,29.82,North,-999,-999.0,-999.0,-999,0.00,,,0.00,weatherlink.com 1.10,2013-02-09 11:56:00,
2013-02-09 07:11:00,-999.0,-99.9,29.82,North,-999,-999.0,-999.0,-999,0.00,,,0.00,weatherlink.com 1.10,2013-02-09 12:11:00,
2013-02-09 07:27:00,-999.0,-99.9,29.83,North,-999,-999.0,-999.0,-999,0.00,,,0.00,weatherlink.com 1.10,2013-02-09 12:27:00,
2013-02-09 07:42:00,-999.0,-99.9,29.85,North,-999,-999.0,-999.0,-999,0.00,,,0.00,weatherlink.com 1.10,2013-02-09 12:42:00,
2013-02-09 07:57:00,-999.0,-99.9,29.85,North,-999,-999.0,-999.0,-999,0.00,,,0.00,weatherlink.com 1.10,2013-02-09 12:57:00,
2013-02-09 08:12:00,-999.0,-99.9,29.86,North,-999,-999.0,-999.0,-999,0.00,,,0.00,weatherlink.com 1.10,2013-02-09 13:12:00,
2013-02-09 08:27:00,13.0,11.0,29.87,NNW,327,9.0,21.0,92,0.00,,,0.00,weatherlink.com 1.10,2013-02-09 13:27:00,
2013-02-09 08:42:00,12.3,10.0,29.88,NNW,333,5.0,22.0,92,0.00,,,0.00,weatherlink.com 1.10,2013-02-09 13:42:00,
2013-02-09 08:57:00,12.0,10.0,29.89,NW,325,9.0,28.0,91,0.00,,,0.00,weatherlink.com 1.10,2013-02-09 13:57:00,
2013-02-09 09:12:00,11.9,10.0,29.90,North,360,1.0,22.0,91,0.00,,,0.00,weatherlink.com 1.10,2013-02-09 14:12:00,
2013-02-09 09:27:00,11.7,10.0,29.92,North,9,3.0,23.0,91,0.00,,,0.00,weatherlink.com 1.10,2013-02-09 14:27:00,
2013-02-09 09:42:00,11.6,10.0,29.93,NW,315,7.0,25.0,91,0.00,,,0.00,weatherlink.com 1.10,2013-02-09 14:42:00,
2013-02-09 09:57:00,11.8,10.0,29.93,WNW,282,8.0,24.0,90,0.00,,,0.00,weatherlink.com 1.10,2013-02-09 14:57:00,
2013-02-09 10:12:00,11.9,10.0,29.94,NNW,347,10.0,24.0,90,0.00,,,0.00,weatherlink.com 1.10,2013-02-09 15:12:00,
2013-02-09 10:27:00,12.5,10.0,29.95,NNW,343,20.0,25.0,89,0.00,,,0.00,weatherlink.com 1.10,2013-02-09 15:27:00,
2013-02-09 10:43:00,13.1,11.0,29.96,ENE,59,7.0,20.0,89,0.00,,,0.00,weatherlink.com 1.10,2013-02-09 15:43:00,
2013-02-09 10:58:00,13.7,11.0,29.96,NNW,327,11.0,23.0,87,0.00,,,0.00,weatherlink.com 1.10,2013-02-09 15:58:00,
2013-02-09 11:13:00,14.9,12.0,29.97,WNW,286,10.0,23.0,86,0.00,,,0.00,weatherlink.com 1.10,2013-02-09 16:13:00,
2013-02-09 11:28:00,15.8,12.0,29.98,North,9,11.0,21.0,84,0.00,,,0.00,weatherlink.com 1.10,2013-02-09 16:28:00,
2013-02-09 11:43:00,15.9,11.0,29.97,WNW,302,7.0,22.0,80,0.00,,,0.00,weatherlink.com 1.10,2013-02-09 16:43:00,
2013-02-09 11:58:00,15.7,10.0,29.98,North,5,12.0,25.0,77,0.00,,,0.00,weatherlink.com 1.10,2013-02-09 16:58:00,
2013-02-09 12:13:00,15.4,9.0,29.98,NW,321,12.0,25.0,75,0.00,,,0.00,weatherlink.com 1.10,2013-02-09 17:13:00,
2013-02-09 12:28:00,16.1,9.0,30.00,North,350,14.0,26.0,72,0.00,,,0.00,weatherlink.com 1.10,2013-02-09 17:28:00,
2013-02-09 12:43:00,16.0,8.0,30.00,NW,323,12.0,20.0,71,0.00,,,0.00,weatherlink.com 1.10,2013-02-09 17:43:00,
2013-02-09 12:58:00,15.7,8.0,30.00,NW,313,7.0,21.0,71,0.00,,,0.00,weatherlink.com 1.10,2013-02-09 17:58:00,
2013-02-09 13:13:00,15.9,8.0,30.00,NNW,339,11.0,26.0,70,0.00,,,0.00,weatherlink.com 1.10,2013-02-09 18:13:00,
2013-02-09 13:28:00,16.2,8.0,30.00,NW,316,9.0,23.0,69,0.00,,,0.00,weatherlink.com 1.10,2013-02-09 18:28:00,
2013-02-09 13:43:00,16.3,7.0,30.02,NW,313,11.0,25.0,66,0.00,,,0.00,weatherlink.com 1.10,2013-02-09 18:43:00,
2013-02-09 13:58:00,16.6,7.0,30.02,WNW,300,12.0,26.0,66,0.00,,,0.00,weatherlink.com 1.10,2013-02-09 18:58:00,
2013-02-09 14:14:00,16.6,6.0,30.03,North,9,13.0,24.0,63,0.00,,,0.00,weatherlink.com 1.10,2013-02-09 19:14:00,
2013-02-09 14:29:00,16.7,6.0,30.03,NNE,16,15.0,25.0,64,0.00,,,0.00,weatherlink.com 1.10,2013-02-09 19:29:00,
2013-02-09 14:44:00,16.6,6.0,30.04,NW,325,8.0,23.0,63,0.00,,,0.00,weatherlink.com 1.10,2013-02-09 19:44:00,
2013-02-09 14:59:00,16.6,6.0,30.03,NNW,328,14.0,25.0,63,0.00,,,0.00,weatherlink.com 1.10,2013-02-09 19:59:00,
2013-02-09 15:14:00,16.2,6.0,30.04,West,281,10.0,23.0,64,0.00,,,0.00,weatherlink.com 1.10,2013-02-09 20:14:00,
2013-02-09 15:29:00,15.9,6.0,30.05,NNW,334,6.0,23.0,64,0.00,,,0.00,weatherlink.com 1.10,2013-02-09 20:29:00,
2013-02-09 15:44:00,15.9,5.0,30.06,NNW,335,5.0,27.0,63,0.00,,,0.00,weatherlink.com 1.10,2013-02-09 20:44:00,
2013-02-09 15:59:00,15.8,5.0,30.07,WNW,301,14.0,25.0,63,0.00,,,0.00,weatherlink.com 1.10,2013-02-09 20:59:00,
2013-02-09 16:14:00,15.4,5.0,30.08,North,360,13.0,21.0,63,0.00,,,0.00,weatherlink.com 1.10,2013-02-09 21:14:00,
2013-02-09 16:29:00,14.5,5.0,30.08,NNW,342,14.0,21.0,65,0.00,,,0.00,weatherlink.com 1.10,2013-02-09 21:29:00,
2013-02-09 16:44:00,13.9,5.0,30.09,NNE,13,8.0,20.0,69,0.00,,,0.00,weatherlink.com 1.10,2013-02-09 21:44:00,
2013-02-09 16:59:00,13.6,5.0,30.10,NNW,329,4.0,20.0,69,0.00,,,0.00,weatherlink.com 1.10,2013-02-09 21:59:00,
2013-02-09 17:14:00,13.2,5.0,30.11,NW,316,12.0,25.0,71,0.00,,,0.00,weatherlink.com 1.10,2013-02-09 22:14:00,
2013-02-09 17:29:00,12.7,5.0,30.12,WNW,300,14.0,25.0,72,0.00,,,0.00,weatherlink.com 1.10,2013-02-09 22:29:00,
2013-02-09 17:45:00,12.4,5.0,30.13,NNW,343,23.0,23.0,72,0.00,,,0.00,weatherlink.com 1.10,2013-02-09 22:45:00,
2013-02-09 18:00:00,12.2,5.0,30.14,NW,320,14.0,25.0,72,0.00,,,0.00,weatherlink.com 1.10,2013-02-09 23:00:00,
2013-02-09 18:15:00,11.9,5.0,30.15,West,265,9.0,24.0,72,0.00,,,0.00,weatherlink.com 1.10,2013-02-09 23:15:00,
2013-02-09 18:30:00,11.6,5.0,30.15,NNW,348,15.0,26.0,73,0.00,,,0.00,weatherlink.com 1.10,2013-02-09 23:30:00,
2013-02-09 18:45:00,11.3,5.0,30.17,West,278,10.0,22.0,74,0.00,,,0.00,weatherlink.com 1.10,2013-02-09 23:45:00,
2013-02-09 19:00:00,10.9,4.0,30.18,North,355,7.0,17.0,75,0.00,,,0.00,weatherlink.com 1.10,2013-02-10 00:00:00,
2013-02-09 19:15:00,10.5,4.0,30.18,NNW,332,9.0,20.0,76,0.00,,,0.00,weatherlink.com 1.10,2013-02-10 00:15:00,
2013-02-09 19:30:00,10.2,4.0,30.18,NNE,26,9.0,17.0,76,0.00,,,0.00,weatherlink.com 1.10,2013-02-10 00:30:00,
2013-02-09 19:45:00,9.8,4.0,30.19,NW,306,5.0,19.0,77,0.00,,,0.00,weatherlink.com 1.10,2013-02-10 00:45:00,
2013-02-09 20:00:00,9.5,4.0,30.20,NNW,338,8.0,17.0,77,0.00,,,0.00,weatherlink.com 1.10,2013-02-10 01:00:00,
2013-02-09 20:15:00,9.1,3.0,30.19,NW,308,12.0,21.0,77,0.00,,,0.00,weatherlink.com 1.10,2013-02-10 01:15:00,
2013-02-09 20:30:00,9.0,3.0,30.20,NNW,348,10.0,20.0,77,0.00,,,0.00,weatherlink.com 1.10,2013-02-10 01:30:00,
2013-02-09 20:45:00,8.7,3.0,30.21,NNW,343,13.0,19.0,77,0.00,,,0.00,weatherlink.com 1.10,2013-02-10 01:45:00,
2013-02-09 21:01:00,8.4,3.0,30.21,NNW,333,9.0,18.0,78,0.00,,,0.00,weatherlink.com 1.10,2013-02-10 02:01:00,
2013-02-09 21:16:00,8.2,3.0,30.23,NW,311,7.0,18.0,79,0.00,,,0.00,weatherlink.com 1.10,2013-02-10 02:16:00,
2013-02-09 21:31:00,7.9,3.0,30.23,North,349,10.0,16.0,79,0.00,,,0.00,weatherlink.com 1.10,2013-02-10 02:31:00,
2013-02-09 21:46:00,7.7,3.0,30.24,North,355,10.0,17.0,80,0.00,,,0.00,weatherlink.com 1.10,2013-02-10 02:46:00,
2013-02-09 22:01:00,7.7,3.0,30.24,NNE,15,8.0,17.0,80,0.00,,,0.00,weatherlink.com 1.10,2013-02-10 03:01:00,
2013-02-09 22:16:00,7.5,2.0,30.25,NW,319,8.0,17.0,79,0.00,,,0.00,weatherlink.com 1.10,2013-02-10 03:16:00,
2013-02-09 22:31:00,7.4,2.0,30.25,NNW,327,9.0,17.0,79,0.00,,,0.00,weatherlink.com 1.10,2013-02-10 03:31:00,
2013-02-09 22:46:00,7.4,2.0,30.26,NE,40,5.0,20.0,79,0.00,,,0.00,weatherlink.com 1.10,2013-02-10 03:46:00,
2013-02-09 23:01:00,7.3,2.0,30.27,NW,321,16.0,17.0,79,0.00,,,0.00,weatherlink.com 1.10,2013-02-10 04:01:00,
2013-02-09 23:16:00,7.0,2.0,30.26,NNW,343,6.0,14.0,79,0.00,,,0.00,weatherlink.com 1.10,2013-02-10 04:16:00,
2013-02-09 23:31:00,6.8,2.0,30.27,North,351,4.0,13.0,80,0.00,,,0.00,weatherlink.com 1.10,2013-02-10 04:31:00,
2013-02-09 23:46:00,6.6,2.0,30.28,NW,306,1.0,8.0,81,0.00,,,0.00,weatherlink.com 1.10,2013-02-10 04:46:00,